Terminal Aerodrome Forecast
Issued by NWS Pittsburgh, PA

Current Version | Previous Version | Text Only | Print | Product List | Glossary Off
Versions: 1 2 3 4 5 6 7 8 9 10 11 12 13 14 15 16 17 18 19 20 21 22 23 24 25 26 27 28 29 30

886
FTUS41 KPBZ 290841 AAA
TAFPIT
TAF AMD
KPIT 290841Z 2909/3012 09010G18KT P6SM VCSH BKN015 OVC040
      TEMPO 2909/2911 2SM SHRA BR OVC008
     FM291400 09011G19KT 6SM -SHRA OVC020
     FM300100 09012G20KT 5SM -SHRA OVC015=

USA.gov is the U.S. government's official web portal to all federal, state and local government web resources and services.